Windhoek — 3FWJ3 — position and weather

sailwx.info

Track history (hours):
 
Tides and Currents Weather Stations Pressure Air Temp Water Temp Dewpoint Dewpoint Depression Visibility Wind Speed Wind Dir Waves Ship Positions

Windhoek

Last reported at 2018-Mar-07 10:03 UTC. Time now 2018-Jun-23 09:53 UTC.
Position N 38°43' W 009°07'.
Warning: this ship's position is months out of date.

Length 172 m; draft 6.5 m.

Type: Ship (hazmat cat B). MMSI: 370431000.

Date/timePositionNaut miles runAvg speedWind from/ knotsBaromVisibWave heightAir tempDewpointWater temp
2018-Mar-07 10:03N 38°43' W 009°07'0 0.1
2018-Mar-07 10:00N 38°43' W 009°07'0 0.0
2018-Mar-07 09:27N 38°43' W 009°07'0 0.0
2018-Mar-07 09:00N 38°43' W 009°07'0 0.0
2018-Mar-07 08:30N 38°43' W 009°07'0 0.0
2018-Mar-07 07:57N 38°43' W 009°07'0 0.0
2018-Mar-07 07:30N 38°43' W 009°07'0 0.0
2018-Mar-07 06:57N 38°43' W 009°07'0 0.0
2018-Mar-07 06:30N 38°43' W 009°07'0 0.0
2018-Mar-07 06:00N 38°43' W 009°07'0 0.0
2018-Mar-07 05:30N 38°43' W 009°07'0 0.0
2018-Mar-07 05:00N 38°43' W 009°07'0 0.0
2018-Mar-07 04:30N 38°43' W 009°07'0 0.0
2018-Mar-07 04:00N 38°43' W 009°07'0 0.0
2018-Mar-07 03:30N 38°43' W 009°07'0 0.0
2018-Mar-07 03:00N 38°43' W 009°07'0 0.0
2018-Mar-07 02:30N 38°43' W 009°07'0 0.0
2018-Mar-07 02:00N 38°43' W 009°07'0 0.0
2018-Mar-07 01:30N 38°43' W 009°07'0 0.0
2018-Mar-07 01:00N 38°43' W 009°07'0 0.0
2018-Mar-07 00:30N 38°43' W 009°07'0 0.0
2018-Mar-07 00:00N 38°43' W 009°07'0 0.0
2018-Mar-06 23:30N 38°43' W 009°07'0 0.0
2018-Mar-06 23:00N 38°43' W 009°07'0 0.0
2018-Mar-06 22:30N 38°43' W 009°07'0 0.0
2018-Mar-06 22:00N 38°43' W 009°07'0 0.0
2018-Mar-06 21:30N 38°43' W 009°07'0 0.0
2018-Mar-06 21:00N 38°43' W 009°07'0 0.0
2018-Mar-06 20:30N 38°43' W 009°07'0 0.0
2018-Mar-06 20:00N 38°43' W 009°07'0 0.0
2018-Mar-06 19:27N 38°43' W 009°07'0 0.0
2018-Mar-06 19:00N 38°43' W 009°07'3 5.9
2018-Mar-06 18:28N 38°41' W 009°10'3 6.6
2018-Mar-06 18:00N 38°41' W 009°14'1 1.8
2018-Mar-06 17:30N 38°41' W 009°15'5 9.1
2018-Mar-06 17:00N 38°39' W 009°20'510.7
2018-Mar-06 16:30N 38°35' W 009°26'2 4.6
2018-Mar-06 16:00N 38°34' W 009°28'0 0.9
2018-Mar-06 15:30N 38°34' W 009°28'2 3.2
2018-Mar-06 15:00N 38°35' W 009°30'712.6
2018-Mar-06 14:29N 38°34' W 009°38'612.7
2018-Mar-06 14:00N 38°34' W 009°46'613.0
2018-Mar-06 13:30N 38°34' W 009°54'612.5
2018-Mar-06 13:00N 38°34' W 010°02'612.5
2018-Mar-06 12:30N 38°39' W 010°05'612.6
2018-Mar-06 12:00N 38°46' W 010°07'612.9
2018-Mar-06 11:30N 38°52' W 010°07'713.1
2018-Mar-06 10:59N 38°58' W 010°03'713.4
2018-Mar-06 10:30N 39°04' W 009°60'713.3
2018-Mar-06 10:00N 39°10' W 009°56'713.2
2018-Mar-06 09:30N 39°16' W 009°52'713.0
2018-Mar-06 09:00N 39°22' W 009°49'812.6
2018-Mar-06 08:24N 39°29' W 009°44'10011.9
2018-Mar-05 23:56N 41°01' W 008°51'511.4
2018-Mar-05 23:30N 41°05' W 008°48'510.8
2018-Mar-05 23:00N 41°09' W 008°44'2 4.9
2018-Mar-05 22:30N 41°11' W 008°42'0 0.7
2018-Mar-05 22:00N 41°12' W 008°41'0 0.0
2018-Mar-05 21:30N 41°12' W 008°41'0 0.0
2018-Mar-05 21:00N 41°12' W 008°41'0 0.0
2018-Mar-05 20:30N 41°12' W 008°41'0 0.0
2018-Mar-05 20:00N 41°12' W 008°41'0 0.0
2018-Mar-05 19:30N 41°12' W 008°41'0 0.0
2018-Mar-05 19:00N 41°12' W 008°41'0 0.0
2018-Mar-05 18:30N 41°12' W 008°41'0 0.0
2018-Mar-05 18:00N 41°12' W 008°41'0 0.0
2018-Mar-05 17:30N 41°12' W 008°41'0 0.0
2018-Mar-05 17:00N 41°12' W 008°41'0 0.0
2018-Mar-05 16:30N 41°12' W 008°41'0 0.0
2018-Mar-05 16:00N 41°12' W 008°41'0 0.0
2018-Mar-05 15:30N 41°12' W 008°41'0 0.0
2018-Mar-05 14:57N 41°12' W 008°41'0 0.0
2018-Mar-05 14:30N 41°12' W 008°41'0 0.0
2018-Mar-05 14:00N 41°12' W 008°41'0 0.0
2018-Mar-05 13:30N 41°12' W 008°41'0 0.0
2018-Mar-05 13:00N 41°12' W 008°41'0 0.0
2018-Mar-05 12:30N 41°12' W 008°41'0 0.0
2018-Mar-05 11:57N 41°12' W 008°41'0 0.1
2018-Mar-05 11:30N 41°12' W 008°41'0 0.0
2018-Mar-05 11:00N 41°12' W 008°41'0 0.0
2018-Mar-05 10:30N 41°12' W 008°41'0 0.0
2018-Mar-05 10:00N 41°12' W 008°41'0 0.0
2018-Mar-05 09:30N 41°12' W 008°41'0 0.0
2018-Mar-05 09:00N 41°12' W 008°41'0 0.0
2018-Mar-05 08:30N 41°12' W 008°41'0 0.0
2018-Mar-05 08:00N 41°12' W 008°41'0 0.0
2018-Mar-05 07:30N 41°12' W 008°41'0 0.0
2018-Mar-05 07:00N 41°12' W 008°41'0 0.0
2018-Mar-05 06:30N 41°12' W 008°41'0 0.0
2018-Mar-05 06:00N 41°12' W 008°41'0 0.0
2018-Mar-05 05:30N 41°12' W 008°41'0 0.0
2018-Mar-05 05:00N 41°12' W 008°41'0 0.0
2018-Mar-05 04:30N 41°12' W 008°41'0 0.0
2018-Mar-05 04:00N 41°12' W 008°41'0 0.0
2018-Mar-05 03:30N 41°12' W 008°41'0 0.0
2018-Mar-05 03:00N 41°12' W 008°41'0 0.0
2018-Mar-05 02:30N 41°12' W 008°41'0 0.0
2018-Mar-05 02:00N 41°12' W 008°41'0 0.0
2018-Mar-05 01:30N 41°12' W 008°41'0 0.0
2018-Mar-05 01:00N 41°12' W 008°41'0 0.0
2018-Mar-05 00:27N 41°12' W 008°41'0 0.0
2018-Mar-05 00:00N 41°12' W 008°41'0 0.0
2018-Mar-04 23:30N 41°12' W 008°41'0 0.0
2018-Mar-04 23:00N 41°12' W 008°41'0 0.0
2018-Mar-04 22:30N 41°12' W 008°41'0 0.0
2018-Mar-04 22:00N 41°12' W 008°41'0 0.0
2018-Mar-04 21:27N 41°12' W 008°41'0 0.0
2018-Mar-04 21:00N 41°12' W 008°41'0 0.0
2018-Mar-04 20:30N 41°12' W 008°41'0 0.0
2018-Mar-04 20:00N 41°12' W 008°41'0 0.0
2018-Mar-04 19:30N 41°12' W 008°41'0 0.0
2018-Mar-04 19:00N 41°12' W 008°41'0 0.0
2018-Mar-04 18:30N 41°12' W 008°41'0 0.0
2018-Mar-04 18:00N 41°12' W 008°41'0 0.0
2018-Mar-04 17:27N 41°12' W 008°41'1 2.1
2018-Mar-04 17:00N 41°11' W 008°42'0 0.5
2018-Mar-04 16:28N 41°11' W 008°42'0 0.0
2018-Mar-04 15:58N 41°11' W 008°42'0 0.0
2018-Mar-04 15:28N 41°11' W 008°42'0 0.0
2018-Mar-04 14:58N 41°11' W 008°42'0 0.0
2018-Mar-04 14:28N 41°11' W 008°42'0 0.0
2018-Mar-04 13:58N 41°11' W 008°42'0 0.0
2018-Mar-04 13:28N 41°11' W 008°42'0 0.0
2018-Mar-04 12:58N 41°11' W 008°42'0 0.0
2018-Mar-04 12:28N 41°11' W 008°42'0 0.0
2018-Mar-04 11:58N 41°11' W 008°42'0 0.0
2018-Mar-04 11:28N 41°11' W 008°42'0 0.0
2018-Mar-04 10:58N 41°11' W 008°42'0 0.0
2018-Mar-04 10:28N 41°11' W 008°42'0 0.0
2018-Mar-04 09:58N 41°11' W 008°42'0 0.0
2018-Mar-04 09:28N 41°11' W 008°42'0 0.0
2018-Mar-04 08:58N 41°11' W 008°42'0 0.0
2018-Mar-04 08:28N 41°11' W 008°42'0 0.0
2018-Mar-04 07:58N 41°11' W 008°42'0 0.0
2018-Mar-04 07:28N 41°11' W 008°42'0 0.0
2018-Mar-04 06:58N 41°11' W 008°42'0 0.0
2018-Mar-04 06:28N 41°11' W 008°42'0 0.0
2018-Mar-04 05:58N 41°11' W 008°42'0 0.0
2018-Mar-04 05:28N 41°11' W 008°42'0 0.0
2018-Mar-04 04:58N 41°11' W 008°42'0 0.0
2018-Mar-04 04:28N 41°11' W 008°42'0 0.0
2018-Mar-04 03:58N 41°11' W 008°42'0 0.0
2018-Mar-04 03:28N 41°11' W 008°42'0 0.0
2018-Mar-04 02:58N 41°11' W 008°42'0 0.0
2018-Mar-04 02:28N 41°11' W 008°42'0 0.0
2018-Mar-04 01:58N 41°11' W 008°42'0 0.0
2018-Mar-04 01:28N 41°11' W 008°42'0 0.0
2018-Mar-04 00:58N 41°11' W 008°42'0 0.0
2018-Mar-04 00:28N 41°11' W 008°42'0 0.0
2018-Mar-03 23:58N 41°11' W 008°42'0 0.0
2018-Mar-03 23:28N 41°11' W 008°42'0 0.0
2018-Mar-03 22:58N 41°11' W 008°42'0 0.0
2018-Mar-03 22:28N 41°11' W 008°42'0 0.0
2018-Mar-03 21:58N 41°11' W 008°42'0 0.0
2018-Mar-03 21:28N 41°11' W 008°42'0 0.0
2018-Mar-03 20:58N 41°11' W 008°42'0 0.0
2018-Mar-03 20:28N 41°11' W 008°42'0 0.0
2018-Mar-03 19:58N 41°11' W 008°42'0 0.0
2018-Mar-03 19:28N 41°11' W 008°42'0 0.0
2018-Mar-03 18:58N 41°11' W 008°42'0 0.0
2018-Mar-03 18:28N 41°11' W 008°42'0 0.0
2018-Mar-03 17:58N 41°11' W 008°42'0 0.0
2018-Mar-03 17:28N 41°11' W 008°42'0 0.0
2018-Mar-03 17:00N 41°11' W 008°42'1 1.4
2018-Mar-03 16:30N 41°10' W 008°42'2 3.6
2018-Mar-03 16:00N 41°09' W 008°44'1 2.6
2018-Mar-03 15:30N 41°08' W 008°45'0 0.1
2018-Mar-03 15:00N 41°08' W 008°45'0 0.1
2018-Mar-03 14:30N 41°08' W 008°45'0 0.1
2018-Mar-03 14:00N 41°08' W 008°45'0 0.0
2018-Mar-03 13:30N 41°08' W 008°45'0 0.0
2018-Mar-03 13:00N 41°08' W 008°45'0 0.0
2018-Mar-03 12:30N 41°08' W 008°45'0 0.0
2018-Mar-03 12:00N 41°08' W 008°45'0 0.1
2018-Mar-03 11:30N 41°08' W 008°45'0 0.1
2018-Mar-03 11:00N 41°08' W 008°45'0 0.1
2018-Mar-03 10:30N 41°08' W 008°45'0 0.1
2018-Mar-03 10:00N 41°08' W 008°45'0 0.1
2018-Mar-03 09:24N 41°08' W 008°45'0 0.0
2018-Mar-03 09:00N 41°08' W 008°45'0 0.1
2018-Mar-03 08:30N 41°08' W 008°45'0 0.0
2018-Mar-03 08:00N 41°08' W 008°45'0 0.0
2018-Mar-03 07:30N 41°08' W 008°45'0 0.1
2018-Mar-03 07:00N 41°08' W 008°45'0 0.1
2018-Mar-03 06:30N 41°08' W 008°45'0 0.0
2018-Mar-03 06:00N 41°08' W 008°45'0 0.1
2018-Mar-03 05:27N 41°08' W 008°45'0 0.1
2018-Mar-03 05:00N 41°08' W 008°45'0 0.0
2018-Mar-03 04:30N 41°08' W 008°45'0 0.0
2018-Mar-03 04:00N 41°08' W 008°45'0 0.1
2018-Mar-03 03:30N 41°08' W 008°45'0 0.0
2018-Mar-03 02:54N 41°08' W 008°45'0 0.1
2018-Mar-03 02:31N 41°08' W 008°45'0 0.1
2018-Mar-03 02:00N 41°08' W 008°45'0 0.1
2018-Mar-03 01:30N 41°08' W 008°45'0 0.0
2018-Mar-03 00:57N 41°08' W 008°45'0 0.0
2018-Mar-03 00:30N 41°08' W 008°45'0 0.0
2018-Mar-03 00:00N 41°08' W 008°45'0 0.0
2018-Mar-02 23:30N 41°08' W 008°45'0 0.0
2018-Mar-02 23:00N 41°08' W 008°45'0 0.0
2018-Mar-02 22:30N 41°08' W 008°45'0 0.0
2018-Mar-02 22:00N 41°08' W 008°45'0 0.0
2018-Mar-02 21:30N 41°08' W 008°45'0 0.0
2018-Mar-02 20:51N 41°08' W 008°45'0 0.0
2018-Mar-02 20:30N 41°08' W 008°45'0 0.0
2018-Mar-02 20:00N 41°08' W 008°45'0 0.0
2018-Mar-02 19:30N 41°08' W 008°45'0 0.0
2018-Mar-02 18:57N 41°08' W 008°45'0 0.0
2018-Mar-02 18:30N 41°08' W 008°45'0 0.1
2018-Mar-02 18:00N 41°08' W 008°45'0 0.0
2018-Mar-02 17:30N 41°08' W 008°45'0 0.0
2018-Mar-02 17:00N 41°08' W 008°45'0 0.0
2018-Mar-02 16:30N 41°08' W 008°45'0 0.0
2018-Mar-02 16:00N 41°08' W 008°45'0 0.0
2018-Mar-02 15:30N 41°08' W 008°45'0 0.1
2018-Mar-02 15:00N 41°08' W 008°45'0 0.0
2018-Mar-02 14:30N 41°08' W 008°45'0 0.1
2018-Mar-02 14:00N 41°08' W 008°45'0 0.0
2018-Mar-02 13:30N 41°08' W 008°45'0 0.1
2018-Mar-02 13:00N 41°08' W 008°45'0 0.0
2018-Mar-02 12:30N 41°08' W 008°45'0 0.0
2018-Mar-02 12:00N 41°08' W 008°45'0 0.1
2018-Mar-02 11:30N 41°08' W 008°46'0 0.0
2018-Mar-02 11:00N 41°08' W 008°46'0 0.0
2018-Mar-02 10:30N 41°08' W 008°46'0 0.0
2018-Mar-02 10:00N 41°08' W 008°46'0 0.1
2018-Mar-02 09:30N 41°08' W 008°46'0 0.0
2018-Mar-02 08:51N 41°08' W 008°46'0 0.0
2018-Mar-02 08:30N 41°08' W 008°46'0 0.0
2018-Mar-02 08:00N 41°08' W 008°46'0 0.1
2018-Mar-02 07:30N 41°08' W 008°45'0 0.1
2018-Mar-02 07:00N 41°08' W 008°45'0 0.0
2018-Mar-02 06:30N 41°08' W 008°45'0 0.0
2018-Mar-02 06:00N 41°08' W 008°45'0 0.0
2018-Mar-02 05:30N 41°08' W 008°45'0 0.0
2018-Mar-02 04:57N 41°08' W 008°45'0 0.0
2018-Mar-02 04:27N 41°08' W 008°45'0 0.0
2018-Mar-02 04:00N 41°08' W 008°45'0 0.0
2018-Mar-02 03:21N 41°08' W 008°45'0 0.0
2018-Mar-02 02:54N 41°08' W 008°45'0 0.0
2018-Mar-02 02:30N 41°08' W 008°45'0 0.0
2018-Mar-02 02:00N 41°08' W 008°45'0 0.1
2018-Mar-02 01:27N 41°08' W 008°45'0 0.2
2018-Mar-02 00:57N 41°08' W 008°45'0 0.1
2018-Mar-02 00:30N 41°08' W 008°45'0 0.1
2018-Mar-02 00:00N 41°08' W 008°45'0 0.0
2018-Mar-01 23:30N 41°08' W 008°45'0 0.0
2018-Mar-01 23:00N 41°08' W 008°45'0 0.1
2018-Mar-01 22:30N 41°08' W 008°45'0 0.1
2018-Mar-01 22:00N 41°08' W 008°45'0 0.1
2018-Mar-01 21:30N 41°08' W 008°45'0 0.0
2018-Mar-01 21:00N 41°08' W 008°45'0 0.0
2018-Mar-01 20:30N 41°08' W 008°45'0 0.0
2018-Mar-01 19:51N 41°08' W 008°45'0 0.1
2018-Mar-01 19:30N 41°08' W 008°45'0 0.1
2018-Mar-01 19:00N 41°08' W 008°45'0 0.0
2018-Mar-01 18:30N 41°08' W 008°45'0 0.0
2018-Mar-01 18:00N 41°08' W 008°45'0 0.0
2018-Mar-01 17:30N 41°08' W 008°45'0 0.0
2018-Mar-01 17:00N 41°08' W 008°45'0 0.0
2018-Mar-01 16:30N 41°08' W 008°45'0 0.0
2018-Mar-01 16:00N 41°08' W 008°45'0 0.1
2018-Mar-01 15:30N 41°08' W 008°45'0 0.0
2018-Mar-01 14:18N 41°08' W 008°45'0 0.1
2018-Mar-01 14:00N 41°08' W 008°45'0 0.0
2018-Mar-01 13:30N 41°08' W 008°45'0 0.3
2018-Mar-01 13:00N 41°08' W 008°45'1 2.0
2018-Mar-01 12:30N 41°07' W 008°47'611.1
2018-Mar-01 12:01N 41°02' W 008°49'1 1.1
2018-Mar-01 11:30N 41°02' W 008°49'10713.4
2018-Mar-01 03:29N 39°27' W 009°54'713.8
2018-Mar-01 02:59N 39°21' W 009°58'714.0
2018-Mar-01 02:30N 39°15' W 010°02'713.7
2018-Mar-01 02:00N 39°09' W 010°06'713.6
2018-Mar-01 01:30N 39°03' W 010°10'713.2
2018-Mar-01 01:00N 38°57' W 010°14'812.9
2018-Mar-01 00:25N 38°49' W 010°16'512.9
2018-Feb-28 23:59N 38°44' W 010°17'713.3
2018-Feb-28 23:30N 38°37' W 010°18'63812.9
2018-Feb-26 21:59N 28°40' W 014°47'713.4
2018-Feb-26 21:28N 28°34' W 014°52'613.4
2018-Feb-26 21:00N 28°30' W 014°57'713.2
2018-Feb-26 20:30N 28°25' W 015°02'713.4
2018-Feb-26 20:00N 28°21' W 015°08'713.4
2018-Feb-26 19:30N 28°16' W 015°13'713.3
2018-Feb-26 19:00N 28°11' W 015°18'611.3
2018-Feb-26 18:30N 28°07' W 015°23'2 4.2
2018-Feb-26 18:00N 28°08' W 015°25'0 0.0
2018-Feb-26 17:29N 28°08' W 015°25'0 0.0
2018-Feb-26 16:59N 28°08' W 015°25'0 0.0
2018-Feb-26 16:20N 28°08' W 015°25'0 0.0
2018-Feb-26 15:51N 28°08' W 015°25'0 0.0
2018-Feb-26 15:20N 28°08' W 015°25'0 0.0
2018-Feb-26 14:35N 28°08' W 015°25'0 0.0
2018-Feb-26 14:21N 28°08' W 015°25'0 0.0
2018-Feb-26 13:53N 28°08' W 015°25'0 0.0
2018-Feb-26 13:23N 28°08' W 015°25'0 0.0
2018-Feb-26 12:53N 28°08' W 015°25'0 0.0
2018-Feb-26 12:23N 28°08' W 015°25'0 0.0
2018-Feb-26 11:57N 28°08' W 015°25'0 0.0
2018-Feb-26 11:23N 28°08' W 015°25'0 0.0
2018-Feb-26 10:56N 28°08' W 015°25'0 0.0
2018-Feb-26 10:26N 28°08' W 015°25'0 0.0
2018-Feb-26 09:56N 28°08' W 015°25'0 0.0
2018-Feb-26 09:26N 28°08' W 015°25'0 0.0
2018-Feb-26 08:59N 28°08' W 015°25'0 0.0
2018-Feb-26 08:15N 28°08' W 015°25'0 0.0
2018-Feb-26 08:00N 28°08' W 015°25'1 2.8
2018-Feb-26 07:30N 28°07' W 015°24'1 2.6
2018-Feb-26 07:00N 28°07' W 015°22'1 2.2
2018-Feb-26 06:30N 28°07' W 015°21'2 4.6
2018-Feb-26 06:00N 28°05' W 015°19'3 5.1
2018-Feb-26 05:30N 28°03' W 015°18'2 4.8
2018-Feb-26 05:00N 28°01' W 015°16'1 3.0
2018-Feb-26 04:30N 27°59' W 015°17'3 6.9
2018-Feb-26 04:00N 27°56' W 015°17'713.0
2018-Feb-26 03:30N 27°50' W 015°18'612.5
2018-Feb-26 03:00N 27°44' W 015°20'  
Track history (hours):
 
Tides and Currents Weather Stations Pressure Air Temp Water Temp Dewpoint Dewpoint Depression Visibility Wind Speed Wind Dir Waves Ship Positions

Windhoek

Last reported at 2018-Mar-07 10:03 UTC. Time now 2018-Jun-23 09:53 UTC.
Position N 38°43' W 009°07'.
Warning: this ship's position is months out of date.

Length 172 m; draft 6.5 m.

Type: Ship (hazmat cat B). MMSI: 370431000.

Date/timePositionNaut miles runAvg speedWind from/ knotsBaromVisibWave heightAir tempDewpointWater temp
2018-Mar-07 10:03N 38°43' W 009°07'0 0.1
2018-Mar-07 10:00N 38°43' W 009°07'0 0.0
2018-Mar-07 09:27N 38°43' W 009°07'0 0.0
2018-Mar-07 09:00N 38°43' W 009°07'0 0.0
2018-Mar-07 08:30N 38°43' W 009°07'0 0.0
2018-Mar-07 07:57N 38°43' W 009°07'0 0.0
2018-Mar-07 07:30N 38°43' W 009°07'0 0.0
2018-Mar-07 06:57N 38°43' W 009°07'0 0.0
2018-Mar-07 06:30N 38°43' W 009°07'0 0.0
2018-Mar-07 06:00N 38°43' W 009°07'0 0.0
2018-Mar-07 05:30N 38°43' W 009°07'0 0.0
2018-Mar-07 05:00N 38°43' W 009°07'0 0.0
2018-Mar-07 04:30N 38°43' W 009°07'0 0.0
2018-Mar-07 04:00N 38°43' W 009°07'0 0.0
2018-Mar-07 03:30N 38°43' W 009°07'0 0.0
2018-Mar-07 03:00N 38°43' W 009°07'0 0.0
2018-Mar-07 02:30N 38°43' W 009°07'0 0.0
2018-Mar-07 02:00N 38°43' W 009°07'0 0.0
2018-Mar-07 01:30N 38°43' W 009°07'0 0.0
2018-Mar-07 01:00N 38°43' W 009°07'0 0.0
2018-Mar-07 00:30N 38°43' W 009°07'0 0.0
2018-Mar-07 00:00N 38°43' W 009°07'0 0.0
2018-Mar-06 23:30N 38°43' W 009°07'0 0.0
2018-Mar-06 23:00N 38°43' W 009°07'0 0.0
2018-Mar-06 22:30N 38°43' W 009°07'0 0.0
2018-Mar-06 22:00N 38°43' W 009°07'0 0.0
2018-Mar-06 21:30N 38°43' W 009°07'0 0.0
2018-Mar-06 21:00N 38°43' W 009°07'0 0.0
2018-Mar-06 20:30N 38°43' W 009°07'0 0.0
2018-Mar-06 20:00N 38°43' W 009°07'0 0.0
2018-Mar-06 19:27N 38°43' W 009°07'0 0.0
2018-Mar-06 19:00N 38°43' W 009°07'3 5.9
2018-Mar-06 18:28N 38°41' W 009°10'3 6.6
2018-Mar-06 18:00N 38°41' W 009°14'1 1.8
2018-Mar-06 17:30N 38°41' W 009°15'5 9.1
2018-Mar-06 17:00N 38°39' W 009°20'510.7
2018-Mar-06 16:30N 38°35' W 009°26'2 4.6
2018-Mar-06 16:00N 38°34' W 009°28'0 0.9
2018-Mar-06 15:30N 38°34' W 009°28'2 3.2
2018-Mar-06 15:00N 38°35' W 009°30'712.6
2018-Mar-06 14:29N 38°34' W 009°38'612.7
2018-Mar-06 14:00N 38°34' W 009°46'613.0
2018-Mar-06 13:30N 38°34' W 009°54'612.5
2018-Mar-06 13:00N 38°34' W 010°02'612.5
2018-Mar-06 12:30N 38°39' W 010°05'612.6
2018-Mar-06 12:00N 38°46' W 010°07'612.9
2018-Mar-06 11:30N 38°52' W 010°07'713.1
2018-Mar-06 10:59N 38°58' W 010°03'713.4
2018-Mar-06 10:30N 39°04' W 009°60'713.3
2018-Mar-06 10:00N 39°10' W 009°56'713.2
2018-Mar-06 09:30N 39°16' W 009°52'713.0
2018-Mar-06 09:00N 39°22' W 009°49'812.6
2018-Mar-06 08:24N 39°29' W 009°44'10011.9
2018-Mar-05 23:56N 41°01' W 008°51'511.4
2018-Mar-05 23:30N 41°05' W 008°48'510.8
2018-Mar-05 23:00N 41°09' W 008°44'2 4.9
2018-Mar-05 22:30N 41°11' W 008°42'0 0.7
2018-Mar-05 22:00N 41°12' W 008°41'0 0.0
2018-Mar-05 21:30N 41°12' W 008°41'0 0.0
2018-Mar-05 21:00N 41°12' W 008°41'0 0.0
2018-Mar-05 20:30N 41°12' W 008°41'0 0.0
2018-Mar-05 20:00N 41°12' W 008°41'0 0.0
2018-Mar-05 19:30N 41°12' W 008°41'0 0.0
2018-Mar-05 19:00N 41°12' W 008°41'0 0.0
2018-Mar-05 18:30N 41°12' W 008°41'0 0.0
2018-Mar-05 18:00N 41°12' W 008°41'0 0.0
2018-Mar-05 17:30N 41°12' W 008°41'0 0.0
2018-Mar-05 17:00N 41°12' W 008°41'0 0.0
2018-Mar-05 16:30N 41°12' W 008°41'0 0.0
2018-Mar-05 16:00N 41°12' W 008°41'0 0.0
2018-Mar-05 15:30N 41°12' W 008°41'0 0.0
2018-Mar-05 14:57N 41°12' W 008°41'0 0.0
2018-Mar-05 14:30N 41°12' W 008°41'0 0.0
2018-Mar-05 14:00N 41°12' W 008°41'0 0.0
2018-Mar-05 13:30N 41°12' W 008°41'0 0.0
2018-Mar-05 13:00N 41°12' W 008°41'0 0.0
2018-Mar-05 12:30N 41°12' W 008°41'0 0.0
2018-Mar-05 11:57N 41°12' W 008°41'0 0.1
2018-Mar-05 11:30N 41°12' W 008°41'0 0.0
2018-Mar-05 11:00N 41°12' W 008°41'0 0.0
2018-Mar-05 10:30N 41°12' W 008°41'0 0.0
2018-Mar-05 10:00N 41°12' W 008°41'0 0.0
2018-Mar-05 09:30N 41°12' W 008°41'0 0.0
2018-Mar-05 09:00N 41°12' W 008°41'0 0.0
2018-Mar-05 08:30N 41°12' W 008°41'0 0.0
2018-Mar-05 08:00N 41°12' W 008°41'0 0.0
2018-Mar-05 07:30N 41°12' W 008°41'0 0.0
2018-Mar-05 07:00N 41°12' W 008°41'0 0.0
2018-Mar-05 06:30N 41°12' W 008°41'0 0.0
2018-Mar-05 06:00N 41°12' W 008°41'0 0.0
2018-Mar-05 05:30N 41°12' W 008°41'0 0.0
2018-Mar-05 05:00N 41°12' W 008°41'0 0.0
2018-Mar-05 04:30N 41°12' W 008°41'0 0.0
2018-Mar-05 04:00N 41°12' W 008°41'0 0.0
2018-Mar-05 03:30N 41°12' W 008°41'0 0.0
2018-Mar-05 03:00N 41°12' W 008°41'0 0.0
2018-Mar-05 02:30N 41°12' W 008°41'0 0.0
2018-Mar-05 02:00N 41°12' W 008°41'0 0.0
2018-Mar-05 01:30N 41°12' W 008°41'0 0.0
2018-Mar-05 01:00N 41°12' W 008°41'0 0.0
2018-Mar-05 00:27N 41°12' W 008°41'0 0.0
2018-Mar-05 00:00N 41°12' W 008°41'0 0.0
2018-Mar-04 23:30N 41°12' W 008°41'0 0.0
2018-Mar-04 23:00N 41°12' W 008°41'0 0.0
2018-Mar-04 22:30N 41°12' W 008°41'0 0.0
2018-Mar-04 22:00N 41°12' W 008°41'0 0.0
2018-Mar-04 21:27N 41°12' W 008°41'0 0.0
2018-Mar-04 21:00N 41°12' W 008°41'0 0.0
2018-Mar-04 20:30N 41°12' W 008°41'0 0.0
2018-Mar-04 20:00N 41°12' W 008°41'0 0.0
2018-Mar-04 19:30N 41°12' W 008°41'0 0.0
2018-Mar-04 19:00N 41°12' W 008°41'0 0.0
2018-Mar-04 18:30N 41°12' W 008°41'0 0.0
2018-Mar-04 18:00N 41°12' W 008°41'0 0.0
2018-Mar-04 17:27N 41°12' W 008°41'1 2.1
2018-Mar-04 17:00N 41°11' W 008°42'0 0.5
2018-Mar-04 16:28N 41°11' W 008°42'0 0.0
2018-Mar-04 15:58N 41°11' W 008°42'0 0.0
2018-Mar-04 15:28N 41°11' W 008°42'0 0.0
2018-Mar-04 14:58N 41°11' W 008°42'0 0.0
2018-Mar-04 14:28N 41°11' W 008°42'0 0.0
2018-Mar-04 13:58N 41°11' W 008°42'0 0.0
2018-Mar-04 13:28N 41°11' W 008°42'0 0.0
2018-Mar-04 12:58N 41°11' W 008°42'0 0.0
2018-Mar-04 12:28N 41°11' W 008°42'0 0.0
2018-Mar-04 11:58N 41°11' W 008°42'0 0.0
2018-Mar-04 11:28N 41°11' W 008°42'0 0.0
2018-Mar-04 10:58N 41°11' W 008°42'0 0.0
2018-Mar-04 10:28N 41°11' W 008°42'0 0.0
2018-Mar-04 09:58N 41°11' W 008°42'0 0.0
2018-Mar-04 09:28N 41°11' W 008°42'0 0.0
2018-Mar-04 08:58N 41°11' W 008°42'0 0.0
2018-Mar-04 08:28N 41°11' W 008°42'0 0.0
2018-Mar-04 07:58N 41°11' W 008°42'0 0.0
2018-Mar-04 07:28N 41°11' W 008°42'0 0.0
2018-Mar-04 06:58N 41°11' W 008°42'0 0.0
2018-Mar-04 06:28N 41°11' W 008°42'0 0.0
2018-Mar-04 05:58N 41°11' W 008°42'0 0.0
2018-Mar-04 05:28N 41°11' W 008°42'0 0.0
2018-Mar-04 04:58N 41°11' W 008°42'0 0.0
2018-Mar-04 04:28N 41°11' W 008°42'0 0.0
2018-Mar-04 03:58N 41°11' W 008°42'0 0.0
2018-Mar-04 03:28N 41°11' W 008°42'0 0.0
2018-Mar-04 02:58N 41°11' W 008°42'0 0.0
2018-Mar-04 02:28N 41°11' W 008°42'0 0.0
2018-Mar-04 01:58N 41°11' W 008°42'0 0.0
2018-Mar-04 01:28N 41°11' W 008°42'0 0.0
2018-Mar-04 00:58N 41°11' W 008°42'0 0.0
2018-Mar-04 00:28N 41°11' W 008°42'0 0.0
2018-Mar-03 23:58N 41°11' W 008°42'0 0.0
2018-Mar-03 23:28N 41°11' W 008°42'0 0.0
2018-Mar-03 22:58N 41°11' W 008°42'0 0.0
2018-Mar-03 22:28N 41°11' W 008°42'0 0.0
2018-Mar-03 21:58N 41°11' W 008°42'0 0.0
2018-Mar-03 21:28N 41°11' W 008°42'0 0.0
2018-Mar-03 20:58N 41°11' W 008°42'0 0.0
2018-Mar-03 20:28N 41°11' W 008°42'0 0.0
2018-Mar-03 19:58N 41°11' W 008°42'0 0.0
2018-Mar-03 19:28N 41°11' W 008°42'0 0.0
2018-Mar-03 18:58N 41°11' W 008°42'0 0.0
2018-Mar-03 18:28N 41°11' W 008°42'0 0.0
2018-Mar-03 17:58N 41°11' W 008°42'0 0.0
2018-Mar-03 17:28N 41°11' W 008°42'0 0.0
2018-Mar-03 17:00N 41°11' W 008°42'1 1.4
2018-Mar-03 16:30N 41°10' W 008°42'2 3.6
2018-Mar-03 16:00N 41°09' W 008°44'1 2.6
2018-Mar-03 15:30N 41°08' W 008°45'0 0.1
2018-Mar-03 15:00N 41°08' W 008°45'0 0.1
2018-Mar-03 14:30N 41°08' W 008°45'0 0.1
2018-Mar-03 14:00N 41°08' W 008°45'0 0.0
2018-Mar-03 13:30N 41°08' W 008°45'0 0.0
2018-Mar-03 13:00N 41°08' W 008°45'0 0.0
2018-Mar-03 12:30N 41°08' W 008°45'0 0.0
2018-Mar-03 12:00N 41°08' W 008°45'0 0.1
2018-Mar-03 11:30N 41°08' W 008°45'0 0.1
2018-Mar-03 11:00N 41°08' W 008°45'0 0.1
2018-Mar-03 10:30N 41°08' W 008°45'0 0.1
2018-Mar-03 10:00N 41°08' W 008°45'0 0.1
2018-Mar-03 09:24N 41°08' W 008°45'0 0.0
2018-Mar-03 09:00N 41°08' W 008°45'0 0.1
2018-Mar-03 08:30N 41°08' W 008°45'0 0.0
2018-Mar-03 08:00N 41°08' W 008°45'0 0.0
2018-Mar-03 07:30N 41°08' W 008°45'0 0.1
2018-Mar-03 07:00N 41°08' W 008°45'0 0.1
2018-Mar-03 06:30N 41°08' W 008°45'0 0.0
2018-Mar-03 06:00N 41°08' W 008°45'0 0.1
2018-Mar-03 05:27N 41°08' W 008°45'0 0.1
2018-Mar-03 05:00N 41°08' W 008°45'0 0.0
2018-Mar-03 04:30N 41°08' W 008°45'0 0.0
2018-Mar-03 04:00N 41°08' W 008°45'0 0.1
2018-Mar-03 03:30N 41°08' W 008°45'0 0.0
2018-Mar-03 02:54N 41°08' W 008°45'0 0.1
2018-Mar-03 02:31N 41°08' W 008°45'0 0.1
2018-Mar-03 02:00N 41°08' W 008°45'0 0.1
2018-Mar-03 01:30N 41°08' W 008°45'0 0.0
2018-Mar-03 00:57N 41°08' W 008°45'0 0.0
2018-Mar-03 00:30N 41°08' W 008°45'0 0.0
2018-Mar-03 00:00N 41°08' W 008°45'0 0.0
2018-Mar-02 23:30N 41°08' W 008°45'0 0.0
2018-Mar-02 23:00N 41°08' W 008°45'0 0.0
2018-Mar-02 22:30N 41°08' W 008°45'0 0.0
2018-Mar-02 22:00N 41°08' W 008°45'0 0.0
2018-Mar-02 21:30N 41°08' W 008°45'0 0.0
2018-Mar-02 20:51N 41°08' W 008°45'0 0.0
2018-Mar-02 20:30N 41°08' W 008°45'0 0.0
2018-Mar-02 20:00N 41°08' W 008°45'0 0.0
2018-Mar-02 19:30N 41°08' W 008°45'0 0.0
2018-Mar-02 18:57N 41°08' W 008°45'0 0.0
2018-Mar-02 18:30N 41°08' W 008°45'0 0.1
2018-Mar-02 18:00N 41°08' W 008°45'0 0.0
2018-Mar-02 17:30N 41°08' W 008°45'0 0.0
2018-Mar-02 17:00N 41°08' W 008°45'0 0.0
2018-Mar-02 16:30N 41°08' W 008°45'0 0.0
2018-Mar-02 16:00N 41°08' W 008°45'0 0.0
2018-Mar-02 15:30N 41°08' W 008°45'0 0.1
2018-Mar-02 15:00N 41°08' W 008°45'0 0.0
2018-Mar-02 14:30N 41°08' W 008°45'0 0.1
2018-Mar-02 14:00N 41°08' W 008°45'0 0.0
2018-Mar-02 13:30N 41°08' W 008°45'0 0.1
2018-Mar-02 13:00N 41°08' W 008°45'0 0.0
2018-Mar-02 12:30N 41°08' W 008°45'0 0.0
2018-Mar-02 12:00N 41°08' W 008°45'0 0.1
2018-Mar-02 11:30N 41°08' W 008°46'0 0.0
2018-Mar-02 11:00N 41°08' W 008°46'0 0.0
2018-Mar-02 10:30N 41°08' W 008°46'0 0.0
2018-Mar-02 10:00N 41°08' W 008°46'0 0.1
2018-Mar-02 09:30N 41°08' W 008°46'0 0.0
2018-Mar-02 08:51N 41°08' W 008°46'0 0.0
2018-Mar-02 08:30N 41°08' W 008°46'0 0.0
2018-Mar-02 08:00N 41°08' W 008°46'0 0.1
2018-Mar-02 07:30N 41°08' W 008°45'0 0.1
2018-Mar-02 07:00N 41°08' W 008°45'0 0.0
2018-Mar-02 06:30N 41°08' W 008°45'0 0.0
2018-Mar-02 06:00N 41°08' W 008°45'0 0.0
2018-Mar-02 05:30N 41°08' W 008°45'0 0.0
2018-Mar-02 04:57N 41°08' W 008°45'0 0.0
2018-Mar-02 04:27N 41°08' W 008°45'0 0.0
2018-Mar-02 04:00N 41°08' W 008°45'0 0.0
2018-Mar-02 03:21N 41°08' W 008°45'0 0.0
2018-Mar-02 02:54N 41°08' W 008°45'0 0.0
2018-Mar-02 02:30N 41°08' W 008°45'0 0.0
2018-Mar-02 02:00N 41°08' W 008°45'0 0.1
2018-Mar-02 01:27N 41°08' W 008°45'0 0.2
2018-Mar-02 00:57N 41°08' W 008°45'0 0.1
2018-Mar-02 00:30N 41°08' W 008°45'0 0.1
2018-Mar-02 00:00N 41°08' W 008°45'0 0.0
2018-Mar-01 23:30N 41°08' W 008°45'0 0.0
2018-Mar-01 23:00N 41°08' W 008°45'0 0.1
2018-Mar-01 22:30N 41°08' W 008°45'0 0.1
2018-Mar-01 22:00N 41°08' W 008°45'0 0.1
2018-Mar-01 21:30N 41°08' W 008°45'0 0.0
2018-Mar-01 21:00N 41°08' W 008°45'0 0.0
2018-Mar-01 20:30N 41°08' W 008°45'0 0.0
2018-Mar-01 19:51N 41°08' W 008°45'0 0.1
2018-Mar-01 19:30N 41°08' W 008°45'0 0.1
2018-Mar-01 19:00N 41°08' W 008°45'0 0.0
2018-Mar-01 18:30N 41°08' W 008°45'0 0.0
2018-Mar-01 18:00N 41°08' W 008°45'0 0.0
2018-Mar-01 17:30N 41°08' W 008°45'0 0.0
2018-Mar-01 17:00N 41°08' W 008°45'0 0.0
2018-Mar-01 16:30N 41°08' W 008°45'0 0.0
2018-Mar-01 16:00N 41°08' W 008°45'0 0.1
2018-Mar-01 15:30N 41°08' W 008°45'0 0.0
2018-Mar-01 14:18N 41°08' W 008°45'0 0.1
2018-Mar-01 14:00N 41°08' W 008°45'0 0.0
2018-Mar-01 13:30N 41°08' W 008°45'0 0.3
2018-Mar-01 13:00N 41°08' W 008°45'1 2.0
2018-Mar-01 12:30N 41°07' W 008°47'611.1
2018-Mar-01 12:01N 41°02' W 008°49'1 1.1
2018-Mar-01 11:30N 41°02' W 008°49'10713.4
2018-Mar-01 03:29N 39°27' W 009°54'713.8
2018-Mar-01 02:59N 39°21' W 009°58'714.0
2018-Mar-01 02:30N 39°15' W 010°02'713.7
2018-Mar-01 02:00N 39°09' W 010°06'713.6
2018-Mar-01 01:30N 39°03' W 010°10'713.2
2018-Mar-01 01:00N 38°57' W 010°14'812.9
2018-Mar-01 00:25N 38°49' W 010°16'512.9
2018-Feb-28 23:59N 38°44' W 010°17'713.3
2018-Feb-28 23:30N 38°37' W 010°18'63812.9
2018-Feb-26 21:59N 28°40' W 014°47'713.4
2018-Feb-26 21:28N 28°34' W 014°52'613.4
2018-Feb-26 21:00N 28°30' W 014°57'713.2
2018-Feb-26 20:30N 28°25' W 015°02'713.4
2018-Feb-26 20:00N 28°21' W 015°08'713.4
2018-Feb-26 19:30N 28°16' W 015°13'713.3
2018-Feb-26 19:00N 28°11' W 015°18'611.3
2018-Feb-26 18:30N 28°07' W 015°23'2 4.2
2018-Feb-26 18:00N 28°08' W 015°25'0 0.0
2018-Feb-26 17:29N 28°08' W 015°25'0 0.0
2018-Feb-26 16:59N 28°08' W 015°25'0 0.0
2018-Feb-26 16:20N 28°08' W 015°25'0 0.0
2018-Feb-26 15:51N 28°08' W 015°25'0 0.0
2018-Feb-26 15:20N 28°08' W 015°25'0 0.0
2018-Feb-26 14:35N 28°08' W 015°25'0 0.0
2018-Feb-26 14:21N 28°08' W 015°25'0 0.0
2018-Feb-26 13:53N 28°08' W 015°25'0 0.0
2018-Feb-26 13:23N 28°08' W 015°25'0 0.0
2018-Feb-26 12:53N 28°08' W 015°25'0 0.0
2018-Feb-26 12:23N 28°08' W 015°25'0 0.0
2018-Feb-26 11:57N 28°08' W 015°25'0 0.0
2018-Feb-26 11:23N 28°08' W 015°25'0 0.0
2018-Feb-26 10:56N 28°08' W 015°25'0 0.0
2018-Feb-26 10:26N 28°08' W 015°25'0 0.0
2018-Feb-26 09:56N 28°08' W 015°25'0 0.0
2018-Feb-26 09:26N 28°08' W 015°25'0 0.0
2018-Feb-26 08:59N 28°08' W 015°25'0 0.0
2018-Feb-26 08:15N 28°08' W 015°25'0 0.0
2018-Feb-26 08:00N 28°08' W 015°25'1 2.8
2018-Feb-26 07:30N 28°07' W 015°24'1 2.6
2018-Feb-26 07:00N 28°07' W 015°22'1 2.2
2018-Feb-26 06:30N 28°07' W 015°21'2 4.6
2018-Feb-26 06:00N 28°05' W 015°19'3 5.1
2018-Feb-26 05:30N 28°03' W 015°18'2 4.8
2018-Feb-26 05:00N 28°01' W 015°16'1 3.0
2018-Feb-26 04:30N 27°59' W 015°17'3 6.9
2018-Feb-26 04:00N 27°56' W 015°17'713.0
2018-Feb-26 03:30N 27°50' W 015°18'612.5
2018-Feb-26 03:00N 27°44' W 015°20'  

Dump ship's entire track history